createdAt,value
2022-10-07T00:01:56.986Z,1.60
2022-10-07T00:04:25.258Z,2.00
2022-10-07T00:06:53.595Z,1.45
2022-10-07T00:09:23.087Z,1.40
2022-10-07T00:11:51.230Z,1.48
2022-10-07T00:14:19.311Z,1.52
2022-10-07T00:16:47.445Z,1.80
2022-10-07T00:19:15.772Z,1.65
2022-10-07T00:21:43.866Z,1.92
2022-10-07T00:24:25.119Z,1.90
2022-10-07T00:26:53.341Z,2.10
2022-10-07T00:29:21.531Z,1.65
2022-10-07T00:31:53.515Z,2.10
2022-10-07T00:34:24.490Z,1.60
2022-10-07T00:36:52.601Z,1.75
2022-10-07T00:39:20.797Z,1.45
2022-10-07T00:41:52.039Z,1.95
2022-10-07T00:44:40.582Z,2.08
2022-10-07T00:47:15.460Z,1.70
2022-10-07T00:49:48.482Z,1.80
2022-10-07T00:52:20.255Z,1.92
2022-10-07T00:54:52.955Z,2.10
2022-10-07T00:57:28.351Z,1.50
2022-10-07T00:59:57.776Z,1.90
2022-10-07T01:02:27.265Z,1.88
2022-10-07T01:04:58.940Z,1.42
2022-10-07T01:07:27.894Z,2.05
2022-10-07T01:09:57.488Z,1.67
2022-10-07T01:12:34.033Z,1.70
2022-10-07T01:15:08.225Z,1.67
2022-10-07T01:17:46.911Z,2.03
2022-10-07T01:20:26.284Z,1.60
2022-10-07T01:23:16.583Z,2.00
2022-10-07T01:26:04.250Z,1.75
2022-10-07T01:28:38.920Z,1.90
2022-10-07T01:31:10.419Z,2.13
2022-10-07T01:33:40.774Z,1.90
2022-10-07T01:36:11.997Z,2.40
2022-10-07T01:38:44.856Z,2.30
2022-10-07T01:41:16.649Z,1.88
2022-10-07T01:43:48.079Z,1.80
2022-10-07T01:46:34.713Z,2.38
2022-10-07T01:49:03.687Z,2.33
2022-10-07T01:51:35.081Z,2.03
2022-10-07T01:54:09.606Z,2.20
2022-10-07T01:56:53.769Z,1.90
2022-10-07T01:59:41.488Z,1.75
2022-10-07T02:02:20.130Z,1.85
2022-10-07T02:04:57.028Z,1.90
2022-10-07T02:07:36.233Z,1.95
2022-10-07T02:10:13.567Z,2.05
2022-10-07T02:12:47.025Z,1.85
2022-10-07T02:15:20.076Z,2.13
2022-10-07T02:17:51.279Z,1.73
2022-10-07T02:20:22.452Z,1.85
2022-10-07T02:22:52.619Z,1.52
2022-10-07T02:25:21.929Z,1.70
2022-10-07T02:27:53.203Z,1.77
2022-10-07T02:30:23.932Z,2.10
2022-10-07T02:33:10.731Z,2.03
2022-10-07T02:35:44.831Z,1.90
2022-10-07T02:38:15.139Z,2.30
2022-10-07T02:40:49.512Z,2.40
2022-10-07T02:43:28.983Z,2.05
2022-10-07T02:46:08.063Z,1.92
2022-10-07T02:48:42.067Z,2.20
2022-10-07T02:51:20.976Z,2.10
2022-10-07T02:53:52.870Z,1.80
2022-10-07T02:56:23.632Z,2.30
2022-10-07T02:58:53.666Z,1.92
2022-10-07T03:01:27.417Z,1.77
2022-10-07T03:03:57.368Z,2.15
2022-10-07T03:06:29.666Z,2.45
2022-10-07T03:09:00.311Z,2.22
2022-10-07T03:11:28.680Z,2.00
2022-10-07T03:13:57.222Z,2.35
2022-10-07T03:16:26.815Z,2.30
2022-10-07T03:18:54.908Z,1.73
2022-10-07T03:21:23.131Z,1.70
2022-10-07T03:23:53.308Z,1.95
2022-10-07T03:26:21.640Z,1.80
2022-10-07T03:28:51.116Z,2.72
2022-10-07T03:31:19.298Z,1.88
2022-10-07T03:33:48.799Z,2.00
2022-10-07T03:36:16.963Z,1.80
2022-10-07T03:38:45.172Z,2.20
2022-10-07T03:41:13.290Z,2.78
2022-10-07T03:43:41.354Z,2.13
2022-10-07T03:46:09.574Z,2.30
2022-10-07T03:48:37.734Z,2.33
2022-10-07T03:51:07.431Z,2.58
2022-10-07T03:53:36.107Z,3.35
2022-10-07T03:56:04.226Z,2.70
2022-10-07T03:58:32.536Z,2.50
2022-10-07T04:01:08.283Z,2.83
2022-10-07T04:03:36.416Z,2.38
2022-10-07T04:06:06.511Z,3.75
2022-10-07T04:08:35.363Z,3.75
2022-10-07T04:11:07.871Z,3.72
2022-10-07T04:13:35.974Z,3.45
2022-10-07T04:16:09.034Z,3.80
2022-10-07T04:18:37.341Z,3.92
2022-10-07T04:21:07.059Z,3.75
2022-10-07T04:23:35.540Z,4.13
2022-10-07T04:26:07.718Z,3.33
2022-10-07T04:28:36.730Z,5.80
2022-10-07T04:31:05.934Z,4.22
2022-10-07T04:33:34.631Z,3.10
2022-10-07T04:36:07.202Z,3.05
2022-10-07T04:38:35.431Z,2.40
2022-10-07T04:41:06.827Z,2.22
2022-10-07T04:43:35.832Z,3.83
2022-10-07T04:46:06.401Z,2.63
2022-10-07T04:48:35.853Z,2.28
2022-10-07T04:51:05.083Z,2.60
2022-10-07T04:53:34.597Z,2.35
2022-10-07T04:56:03.186Z,3.00
2022-10-07T04:58:32.279Z,3.55
2022-10-07T05:01:02.310Z,2.47
2022-10-07T05:03:31.330Z,2.92
2022-10-07T05:06:05.895Z,2.88
2022-10-07T05:08:35.767Z,2.42
2022-10-07T05:11:04.861Z,3.13
2022-10-07T05:13:34.337Z,3.22
2022-10-07T05:16:03.712Z,2.75
2022-10-07T05:18:33.377Z,2.72
2022-10-07T05:21:06.243Z,3.08
2022-10-07T05:23:37.119Z,3.25
2022-10-07T05:26:08.798Z,3.08
2022-10-07T05:28:37.589Z,2.90
2022-10-07T05:31:07.761Z,2.85
2022-10-07T05:33:36.755Z,2.90
2022-10-07T05:36:06.882Z,3.30
2022-10-07T05:38:37.037Z,3.10
2022-10-07T05:41:07.615Z,3.20
2022-10-07T05:43:37.938Z,4.10
2022-10-07T05:46:07.687Z,3.50
2022-10-07T05:48:39.405Z,3.40
2022-10-07T05:51:08.746Z,3.05
2022-10-07T05:53:41.304Z,2.92
2022-10-07T05:56:12.128Z,3.95
2022-10-07T05:58:40.516Z,3.58
2022-10-07T06:01:15.986Z,4.15
2022-10-07T06:03:44.608Z,2.97
2022-10-07T06:06:12.877Z,3.75
2022-10-07T06:08:42.357Z,4.22
2022-10-07T06:11:30.797Z,4.00
2022-10-07T06:13:59.189Z,3.13
2022-10-07T06:16:27.682Z,4.18
2022-10-07T06:18:56.817Z,3.67
2022-10-07T06:21:27.990Z,3.58
2022-10-07T06:23:59.363Z,3.28
2022-10-07T06:26:27.912Z,3.60
2022-10-07T06:28:56.023Z,4.53
2022-10-07T06:31:26.263Z,5.70
2022-10-07T06:33:55.150Z,3.78
2022-10-07T06:36:23.667Z,3.50
2022-10-07T06:39:04.833Z,3.20
2022-10-07T06:41:32.958Z,3.22
2022-10-07T06:44:01.244Z,3.33
2022-10-07T06:46:29.419Z,3.33
2022-10-07T06:48:58.269Z,3.40
2022-10-07T06:51:26.550Z,3.20
2022-10-07T06:53:58.149Z,3.15
2022-10-07T06:56:27.634Z,3.20
2022-10-07T06:58:55.858Z,3.28
2022-10-07T07:01:24.040Z,3.47
2022-10-07T07:03:53.998Z,3.17
2022-10-07T07:06:22.108Z,7.18
2022-10-07T07:08:50.852Z,3.72
2022-10-07T07:11:41.047Z,3.47
2022-10-07T07:14:12.519Z,2.80
2022-10-07T07:16:46.103Z,3.25
2022-10-07T07:19:16.211Z,3.55
2022-10-07T07:21:47.608Z,3.40
2022-10-07T07:24:17.169Z,3.08
2022-10-07T07:26:46.540Z,3.55
2022-10-07T07:29:16.569Z,5.80
2022-10-07T07:31:45.182Z,6.40
2022-10-07T07:34:14.676Z,5.53
2022-10-07T07:36:46.060Z,4.30
2022-10-07T07:39:17.428Z,4.07
2022-10-07T07:41:47.795Z,4.55
2022-10-07T07:44:18.554Z,4.05
2022-10-07T07:46:51.383Z,4.47
2022-10-07T07:49:21.129Z,3.17
2022-10-07T07:51:49.263Z,2.75
2022-10-07T07:54:18.198Z,2.95
2022-10-07T07:56:47.840Z,3.50
2022-10-07T07:59:17.672Z,3.45
2022-10-07T08:01:46.662Z,2.92
2022-10-07T08:04:15.436Z,2.78
2022-10-07T08:06:43.878Z,2.80
2022-10-07T08:09:12.997Z,2.85
2022-10-07T08:11:45.177Z,3.03
2022-10-07T08:14:13.429Z,2.75
2022-10-07T08:16:43.887Z,3.20
2022-10-07T08:19:12.376Z,3.45
2022-10-07T08:21:40.661Z,3.05
2022-10-07T08:24:09.926Z,3.08
2022-10-07T08:26:38.814Z,2.78
2022-10-07T08:29:07.120Z,2.60
2022-10-07T08:34:58.540Z,2.72
2022-10-07T08:37:26.704Z,2.63
2022-10-07T08:39:55.082Z,2.45
2022-10-07T08:42:30.607Z,3.05
2022-10-07T08:44:59.508Z,3.05
2022-10-07T08:47:34.700Z,2.85
2022-10-07T08:50:07.903Z,2.90
2022-10-07T08:55:20.481Z,2.65
2022-10-07T08:58:22.236Z,2.78
2022-10-07T09:00:57.671Z,2.53
2022-10-07T09:03:37.961Z,3.28
2022-10-07T09:06:13.917Z,2.42
2022-10-07T09:08:45.975Z,2.47
2022-10-07T09:11:18.195Z,2.85
2022-10-07T09:13:49.407Z,2.70
2022-10-07T09:16:32.605Z,2.63
2022-10-07T09:19:04.002Z,2.75
2022-10-07T09:21:38.317Z,2.45
2022-10-07T09:24:18.728Z,2.45
2022-10-07T09:26:47.207Z,2.95
2022-10-07T09:29:17.030Z,3.05
2022-10-07T09:31:45.111Z,2.67
2022-10-07T09:34:21.382Z,2.30
2022-10-07T09:37:12.419Z,1.98
2022-10-07T09:39:41.190Z,2.92
2022-10-07T09:42:16.720Z,2.60
2022-10-07T09:44:53.180Z,2.05
2022-10-07T09:47:31.587Z,1.98
2022-10-07T09:50:01.247Z,2.40
2022-10-07T09:52:30.715Z,2.30
2022-10-07T09:55:16.487Z,2.20
2022-10-07T09:57:46.315Z,2.13
2022-10-07T10:00:28.124Z,2.30
2022-10-07T10:03:05.211Z,2.17
2022-10-07T10:05:37.417Z,1.85
2022-10-07T10:08:13.319Z,1.92
2022-10-07T10:10:54.930Z,1.90
2022-10-07T10:13:32.524Z,1.73
2022-10-07T10:16:04.604Z,1.88
2022-10-07T10:18:40.855Z,1.50
2022-10-07T10:21:30.091Z,1.42
2022-10-07T10:24:08.633Z,1.73
2022-10-07T10:26:48.196Z,1.52
2022-10-07T10:29:42.173Z,1.70
2022-10-07T10:32:40.611Z,1.60
2022-10-07T10:35:32.896Z,1.10
2022-10-07T10:38:34.024Z,1.60
2022-10-07T10:42:07.053Z,1.02
2022-10-07T10:45:07.918Z,0.95
2022-10-07T10:47:49.622Z,0.98
2022-10-07T10:50:26.007Z,0.63
2022-10-07T10:53:04.856Z,0.88
2022-10-07T10:56:04.408Z,1.20
2022-10-07T10:58:47.409Z,0.70
2022-10-07T11:04:19.885Z,0.60
2022-10-07T11:06:52.238Z,0.80
2022-10-07T11:09:31.040Z,0.65
2022-10-07T11:12:22.447Z,1.10
2022-10-07T11:14:57.830Z,0.98
2022-10-07T11:17:31.887Z,0.93
2022-10-07T11:20:13.811Z,1.20
2022-10-07T11:22:47.794Z,1.50
2022-10-07T11:25:25.784Z,0.85
2022-10-07T11:28:08.378Z,0.88
2022-10-07T11:30:43.913Z,0.77
2022-10-07T11:33:22.006Z,0.85
2022-10-07T11:35:55.226Z,1.10
2022-10-07T11:38:28.923Z,0.82
2022-10-07T11:41:01.981Z,1.05
2022-10-07T11:43:37.250Z,1.23
2022-10-07T11:46:11.676Z,1.00
2022-10-07T11:48:46.037Z,0.88
2022-10-07T11:51:24.612Z,1.00
2022-10-07T11:53:56.793Z,1.20
2022-10-07T11:56:32.329Z,0.80
2022-10-07T11:59:03.832Z,1.10
2022-10-07T12:01:47.697Z,1.20
2022-10-07T12:04:39.639Z,0.70
2022-10-07T12:07:37.159Z,1.08
2022-10-07T12:10:35.699Z,3.95
2022-10-07T12:13:38.072Z,2.03
2022-10-07T12:16:43.903Z,1.50
2022-10-07T12:19:23.498Z,1.25
2022-10-07T12:22:18.897Z,1.25
2022-10-07T12:25:11.298Z,0.93
2022-10-07T12:27:47.306Z,0.90
2022-10-07T12:30:42.293Z,0.90
2022-10-07T12:33:30.011Z,1.02
2022-10-07T12:35:58.180Z,0.90
2022-10-07T12:38:28.656Z,1.30
2022-10-07T12:41:25.353Z,1.02
2022-10-07T12:44:06.310Z,0.80
2022-10-07T12:46:47.786Z,1.10
2022-10-07T12:49:24.450Z,1.10
2022-10-07T12:51:55.565Z,0.93
2022-10-07T12:54:30.020Z,1.00
2022-10-07T12:56:58.200Z,1.15
2022-10-07T12:59:50.361Z,1.08
2022-10-07T13:03:14.690Z,1.05
2022-10-07T13:06:14.116Z,0.95
2022-10-07T13:09:10.332Z,0.60
2022-10-07T13:12:02.365Z,1.17
2022-10-07T13:14:41.584Z,2.03
2022-10-07T13:18:14.753Z,0.93
2022-10-07T13:21:18.154Z,0.98
2022-10-07T13:23:52.836Z,1.10
2022-10-07T13:26:23.223Z,0.90
2022-10-07T13:28:53.794Z,1.00
2022-10-07T13:31:24.576Z,0.90
2022-10-07T13:33:54.125Z,0.80
2022-10-07T13:36:24.678Z,0.88
2022-10-07T13:38:55.489Z,1.00
2022-10-07T13:41:27.294Z,0.98
2022-10-07T13:44:00.180Z,0.77
2022-10-07T13:48:58.552Z,0.60
2022-10-07T13:51:31.224Z,0.95
2022-10-07T13:54:03.164Z,1.20
2022-10-07T13:56:35.215Z,1.10
2022-10-07T13:59:06.648Z,0.65
2022-10-07T14:01:39.300Z,1.00
2022-10-07T14:04:19.079Z,1.30
2022-10-07T14:06:53.614Z,1.00
2022-10-07T14:09:27.292Z,1.40
2022-10-07T14:11:57.906Z,1.40
2022-10-07T14:14:28.403Z,1.02
2022-10-07T14:17:00.333Z,1.20
2022-10-07T14:19:32.860Z,1.33
2022-10-07T14:22:03.494Z,0.98
2022-10-07T14:24:33.389Z,1.10
2022-10-07T14:27:02.084Z,1.20
2022-10-07T14:29:37.757Z,1.27
2022-10-07T14:32:35.205Z,1.52
2022-10-07T14:35:19.328Z,0.88
2022-10-07T14:37:47.679Z,1.08
2022-10-07T14:40:23.228Z,1.05
2022-10-07T14:42:53.848Z,1.33
2022-10-07T14:45:23.780Z,1.92
2022-10-07T14:47:52.481Z,1.30
2022-10-07T14:50:20.643Z,1.65
2022-10-07T14:52:52.338Z,0.82
2022-10-07T14:55:25.034Z,1.50
2022-10-07T14:57:53.180Z,1.38
2022-10-07T15:00:23.154Z,1.30
2022-10-07T15:02:51.478Z,1.48
2022-10-07T15:05:19.947Z,1.52
2022-10-07T15:07:49.199Z,1.40
2022-10-07T15:10:20.563Z,1.85
2022-10-07T15:12:50.376Z,1.23
2022-10-07T15:15:18.978Z,1.35
2022-10-07T15:17:48.016Z,1.13
2022-10-07T15:20:17.665Z,1.23
2022-10-07T15:22:46.668Z,1.40
2022-10-07T15:25:15.771Z,1.48
2022-10-07T15:27:44.046Z,0.90
2022-10-07T15:30:14.875Z,1.15
2022-10-07T15:32:43.324Z,1.17
2022-10-07T15:35:12.373Z,1.30
2022-10-07T15:37:45.650Z,1.15
2022-10-07T15:40:14.677Z,1.08
2022-10-07T15:42:45.218Z,1.80
2022-10-07T15:45:15.020Z,1.67
2022-10-07T15:47:43.089Z,1.55
2022-10-07T15:50:11.603Z,1.67
2022-10-07T15:52:39.688Z,5.68
2022-10-07T15:55:08.990Z,2.38
2022-10-07T15:57:37.118Z,1.58
2022-10-07T16:00:05.802Z,1.90
2022-10-07T16:02:36.257Z,1.52
2022-10-07T16:05:04.855Z,1.85
2022-10-07T16:07:32.930Z,1.52
2022-10-07T16:10:00.997Z,1.13
2022-10-07T16:12:29.056Z,1.48
2022-10-07T16:14:57.327Z,1.80
2022-10-07T16:17:25.619Z,1.90
2022-10-07T16:19:55.026Z,1.38
2022-10-07T16:22:23.106Z,1.25
2022-10-07T16:24:52.135Z,1.80
2022-10-07T16:27:20.231Z,2.03
2022-10-07T16:30:05.595Z,2.40
2022-10-07T16:32:34.667Z,1.67
2022-10-07T16:35:04.203Z,1.80
2022-10-07T16:37:34.288Z,3.05
2022-10-07T16:40:02.651Z,4.43
2022-10-07T16:42:30.759Z,2.80
2022-10-07T16:44:58.839Z,6.25
2022-10-07T16:47:26.896Z,5.55
2022-10-07T16:49:55.028Z,4.85
2022-10-07T16:52:25.511Z,9.30
2022-10-07T16:54:53.757Z,40.05
2022-10-07T16:57:21.843Z,22.80
2022-10-07T16:59:53.297Z,9.73
2022-10-07T17:02:21.468Z,5.82
2022-10-07T17:04:49.743Z,9.98
2022-10-07T17:07:17.888Z,9.85
2022-10-07T17:09:47.495Z,7.07
2022-10-07T17:12:16.322Z,5.95
2022-10-07T17:14:44.396Z,8.23
2022-10-07T17:17:12.472Z,11.90
2022-10-07T17:19:40.509Z,8.38
2022-10-07T17:22:09.610Z,4.57
2022-10-07T17:24:37.773Z,3.08
2022-10-07T17:27:08.923Z,3.40
2022-10-07T17:29:38.445Z,2.60
2022-10-07T17:32:07.524Z,1.30
2022-10-07T17:34:35.648Z,1.55
2022-10-07T17:37:03.759Z,1.63
2022-10-07T17:39:32.105Z,1.80
2022-10-07T17:42:00.184Z,1.70
2022-10-07T17:44:31.977Z,2.80
2022-10-07T17:47:03.561Z,2.17
2022-10-07T17:49:31.969Z,3.28
2022-10-07T17:52:00.071Z,2.63
2022-10-07T17:54:28.166Z,7.22
2022-10-07T17:56:56.241Z,9.85
2022-10-07T17:59:24.325Z,7.20
2022-10-07T18:01:53.781Z,7.53
2022-10-07T18:04:25.071Z,7.95
2022-10-07T18:06:53.520Z,10.00
2022-10-07T18:09:24.097Z,8.75
2022-10-07T18:12:09.441Z,12.80
2022-10-07T18:14:54.801Z,15.13
2022-10-07T18:17:25.022Z,8.30
2022-10-07T18:19:53.228Z,6.25
2022-10-07T18:22:21.586Z,4.35
2022-10-07T18:24:49.872Z,4.07
2022-10-07T18:27:18.042Z,5.75
2022-10-07T18:29:46.118Z,4.93
2022-10-07T18:32:14.222Z,4.57
2022-10-07T18:34:43.672Z,4.80
2022-10-07T18:37:11.983Z,4.20
2022-10-07T18:39:40.578Z,3.90
2022-10-07T18:42:08.945Z,6.07
2022-10-07T18:44:37.052Z,8.13
2022-10-07T18:47:05.244Z,6.43
2022-10-07T18:49:33.389Z,4.20
2022-10-07T18:52:05.140Z,5.18
2022-10-07T18:54:33.324Z,5.90
2022-10-07T18:57:01.452Z,5.40
2022-10-07T18:59:29.577Z,4.88
2022-10-07T19:01:57.731Z,4.68
2022-10-07T19:04:25.972Z,4.20
2022-10-07T19:06:54.054Z,3.95
2022-10-07T19:09:24.015Z,3.70
2022-10-07T19:11:52.148Z,3.20
2022-10-07T19:14:20.108Z,2.75
2022-10-07T19:16:50.030Z,3.20
2022-10-07T19:19:20.334Z,2.70
2022-10-07T19:21:50.561Z,3.00
2022-10-07T19:24:19.162Z,6.07
2022-10-07T19:26:50.963Z,5.15
2022-10-07T19:29:19.136Z,3.15
2022-10-07T19:31:50.033Z,4.07
2022-10-07T19:34:21.030Z,4.55
2022-10-07T19:36:50.293Z,3.75
2022-10-07T19:39:20.165Z,4.50
2022-10-07T19:41:51.147Z,5.00
2022-10-07T19:44:19.437Z,4.22
2022-10-07T19:46:47.537Z,3.58
2022-10-07T19:49:15.989Z,3.70
2022-10-07T19:51:45.501Z,3.83
2022-10-07T19:54:13.655Z,3.33
2022-10-07T19:56:42.295Z,5.88
2022-10-07T19:59:13.771Z,4.75
2022-10-07T20:01:43.878Z,4.05
2022-10-07T20:04:14.138Z,6.55
2022-10-07T20:06:43.130Z,3.92
2022-10-07T20:09:13.660Z,3.33
2022-10-07T20:11:41.778Z,3.28
2022-10-07T20:14:11.494Z,3.38
2022-10-07T20:16:40.037Z,4.00
2022-10-07T20:19:11.258Z,3.15
2022-10-07T20:21:40.323Z,3.38
2022-10-07T20:24:09.902Z,3.50
2022-10-07T20:26:39.479Z,3.60
2022-10-07T20:29:10.185Z,3.40
2022-10-07T20:31:41.554Z,3.58
2022-10-07T20:34:14.429Z,2.60
2022-10-07T20:36:42.610Z,2.22
2022-10-07T20:39:33.343Z,2.35
2022-10-07T20:42:19.084Z,2.15
2022-10-07T20:44:48.269Z,1.98
2022-10-07T20:47:18.538Z,2.50
2022-10-07T20:49:48.427Z,3.00
2022-10-07T20:52:19.263Z,2.90
2022-10-07T20:54:48.182Z,3.22
2022-10-07T20:57:22.283Z,3.20
2022-10-07T20:59:50.805Z,4.10
2022-10-07T21:02:22.228Z,3.95
2022-10-07T21:04:50.358Z,3.75
2022-10-07T21:07:20.442Z,3.75
2022-10-07T21:09:49.122Z,3.50
2022-10-07T21:12:18.863Z,4.20
2022-10-07T21:14:48.510Z,4.50
2022-10-07T21:17:17.039Z,4.72
2022-10-07T21:19:46.465Z,4.40
2022-10-07T21:22:14.561Z,4.40
2022-10-07T21:24:42.719Z,4.15
2022-10-07T21:27:11.517Z,4.85
2022-10-07T21:29:41.273Z,4.75
2022-10-07T21:32:10.451Z,4.78
2022-10-07T21:34:38.950Z,4.47
2022-10-07T21:37:08.570Z,4.75
2022-10-07T21:39:38.116Z,4.57
2022-10-07T21:42:06.404Z,4.65
2022-10-07T21:44:35.569Z,4.25
2022-10-07T21:47:05.071Z,5.55
2022-10-07T21:49:33.286Z,4.53
2022-10-07T21:52:01.385Z,5.10
2022-10-07T21:54:31.127Z,4.80
2022-10-07T21:56:59.210Z,4.45
2022-10-07T21:59:27.301Z,3.88
2022-10-07T22:01:55.447Z,4.65
2022-10-07T22:04:24.410Z,4.38
2022-10-07T22:07:09.734Z,4.32
2022-10-07T22:09:39.198Z,3.78
2022-10-07T22:12:07.979Z,4.85
2022-10-07T22:14:36.119Z,4.55
2022-10-07T22:17:04.397Z,4.82
2022-10-07T22:19:32.466Z,4.70
2022-10-07T22:22:00.599Z,5.00
2022-10-07T22:24:28.675Z,4.45
2022-10-07T22:26:59.412Z,4.32
2022-10-07T22:29:28.301Z,4.25
2022-10-07T22:31:57.818Z,5.22
2022-10-07T22:34:43.603Z,4.38
2022-10-07T22:37:11.717Z,4.43
2022-10-07T22:39:40.939Z,4.40
2022-10-07T22:42:10.460Z,4.65
2022-10-07T22:44:38.535Z,4.28
2022-10-07T22:47:06.657Z,3.95
2022-10-07T22:49:34.736Z,4.13
2022-10-07T22:52:02.816Z,4.05
2022-10-07T22:54:30.934Z,4.18
2022-10-07T22:56:59.023Z,4.32
2022-10-07T22:59:28.613Z,4.43
2022-10-07T23:01:56.715Z,4.20
2022-10-07T23:04:24.756Z,3.67
2022-10-07T23:06:53.592Z,4.07
2022-10-07T23:09:22.047Z,3.85
2022-10-07T23:11:50.089Z,3.90
2022-10-07T23:14:18.300Z,3.53
2022-10-07T23:16:47.766Z,3.83
2022-10-07T23:19:15.935Z,3.90
2022-10-07T23:21:44.023Z,3.63
2022-10-07T23:24:12.533Z,3.78
2022-10-07T23:26:40.587Z,4.03
2022-10-07T23:29:08.820Z,3.70
2022-10-07T23:31:37.014Z,3.13
2022-10-07T23:34:07.432Z,3.35
2022-10-07T23:36:35.802Z,3.20
2022-10-07T23:39:04.140Z,3.03
2022-10-07T23:41:32.434Z,3.15
2022-10-07T23:44:02.927Z,3.25
2022-10-07T23:46:33.953Z,3.40
2022-10-07T23:49:02.726Z,3.58
2022-10-07T23:51:33.229Z,3.33
2022-10-07T23:54:03.065Z,2.80
2022-10-07T23:56:32.162Z,3.40
2022-10-07T23:59:01.359Z,3.30
